createdAt,value
2023-02-07T00:01:34.994Z,362.90
2023-02-07T00:04:03.118Z,382.90
2023-02-07T00:06:34.021Z,437.80
2023-02-07T00:09:05.127Z,441.60
2023-02-07T00:11:32.996Z,402.10
2023-02-07T00:14:01.094Z,397.90
2023-02-07T00:16:29.347Z,392.00
2023-02-07T00:19:00.073Z,363.00
2023-02-07T00:21:29.738Z,389.00
2023-02-07T00:23:58.418Z,431.20
2023-02-07T00:26:27.533Z,420.10
2023-02-07T00:28:57.587Z,404.10
2023-02-07T00:31:31.628Z,401.90
2023-02-07T00:34:03.077Z,395.80
2023-02-07T00:36:33.335Z,424.20
2023-02-07T00:39:04.765Z,393.80
2023-02-07T00:41:33.320Z,382.10
2023-02-07T00:44:01.289Z,375.30
2023-02-07T00:46:30.398Z,380.70
2023-02-07T00:48:58.251Z,371.00
2023-02-07T00:51:26.536Z,341.30
2023-02-07T00:53:55.391Z,425.80
2023-02-07T00:56:25.959Z,461.00
2023-02-07T00:58:53.940Z,358.30
2023-02-07T01:01:24.555Z,333.00
2023-02-07T01:03:52.417Z,341.50
2023-02-07T01:06:20.965Z,336.10
2023-02-07T01:08:48.829Z,329.90
2023-02-07T01:11:18.841Z,333.10
2023-02-07T01:13:46.722Z,325.40
2023-02-07T01:16:24.196Z,314.60
2023-02-07T01:18:52.405Z,301.80
2023-02-07T01:21:23.091Z,265.90
2023-02-07T01:23:51.730Z,250.90
2023-02-07T01:26:19.551Z,271.30
2023-02-07T01:28:47.334Z,268.90
2023-02-07T01:31:15.207Z,271.20
2023-02-07T01:33:43.236Z,281.30
2023-02-07T01:36:16.234Z,283.30
2023-02-07T01:38:44.145Z,275.90
2023-02-07T01:41:13.589Z,264.10
2023-02-07T01:44:03.823Z,265.30
2023-02-07T01:46:33.893Z,277.10
2023-02-07T01:49:08.997Z,318.10
2023-02-07T01:51:39.863Z,501.10
2023-02-07T01:54:11.700Z,448.80
2023-02-07T01:56:45.759Z,348.60
2023-02-07T01:59:15.715Z,313.30
2023-02-07T02:01:45.609Z,300.80
2023-02-07T02:04:13.660Z,297.30
2023-02-07T02:06:42.083Z,266.90
2023-02-07T02:09:14.378Z,296.70
2023-02-07T02:11:57.714Z,320.90
2023-02-07T02:14:34.987Z,318.90
2023-02-07T02:17:17.799Z,295.00
2023-02-07T02:20:04.747Z,300.70
2023-02-07T02:22:38.552Z,278.50
2023-02-07T02:25:28.452Z,288.40
2023-02-07T02:27:59.456Z,285.70
2023-02-07T02:30:52.894Z,289.20
2023-02-07T02:33:29.906Z,282.10
2023-02-07T02:36:21.138Z,290.80
2023-02-07T02:39:01.145Z,283.00
2023-02-07T02:41:40.912Z,273.20
2023-02-07T02:44:15.945Z,267.20
2023-02-07T02:46:45.233Z,266.30
2023-02-07T02:49:16.437Z,257.70
2023-02-07T02:51:44.384Z,267.50
2023-02-07T02:54:32.556Z,240.60
2023-02-07T02:57:12.022Z,257.40
2023-02-07T03:00:08.148Z,234.10
2023-02-07T03:02:45.473Z,238.00
2023-02-07T03:05:22.674Z,255.80
2023-02-07T03:08:16.089Z,251.50
2023-02-07T03:10:53.145Z,248.00
2023-02-07T03:13:31.897Z,250.80
2023-02-07T03:16:11.114Z,238.70
2023-02-07T03:18:46.059Z,246.40
2023-02-07T03:21:25.201Z,241.80
2023-02-07T03:23:56.947Z,249.90
2023-02-07T03:26:29.229Z,266.60
2023-02-07T03:28:59.603Z,276.50
2023-02-07T03:31:30.352Z,280.30
2023-02-07T03:34:22.285Z,284.30
2023-02-07T03:36:58.358Z,278.10
2023-02-07T03:39:27.063Z,272.90
2023-02-07T03:42:03.912Z,272.30
2023-02-07T03:44:34.967Z,272.90
2023-02-07T03:47:04.253Z,292.20
2023-02-07T03:49:32.088Z,273.00
2023-02-07T03:52:00.701Z,276.60
2023-02-07T03:54:28.496Z,277.10
2023-02-07T03:56:56.363Z,287.80
2023-02-07T03:59:24.248Z,277.80
2023-02-07T04:01:52.367Z,294.90
2023-02-07T04:04:20.476Z,285.80
2023-02-07T04:06:48.389Z,293.70
2023-02-07T04:09:16.613Z,301.70
2023-02-07T04:11:44.534Z,292.60
2023-02-07T04:14:12.425Z,276.80
2023-02-07T04:16:40.263Z,284.60
2023-02-07T04:19:08.415Z,282.20
2023-02-07T04:21:36.342Z,277.10
2023-02-07T04:24:04.609Z,279.30
2023-02-07T04:26:32.556Z,265.40
2023-02-07T04:29:00.570Z,289.00
2023-02-07T04:31:28.726Z,267.00
2023-02-07T04:33:56.787Z,270.00
2023-02-07T04:36:24.882Z,302.20
2023-02-07T04:38:52.756Z,370.30
2023-02-07T04:41:20.820Z,263.50
2023-02-07T04:43:48.657Z,278.00
2023-02-07T04:46:16.743Z,271.70
2023-02-07T04:48:44.872Z,261.10
2023-02-07T04:51:12.729Z,259.70
2023-02-07T04:53:40.777Z,244.70
2023-02-07T04:56:08.937Z,247.50
2023-02-07T04:58:36.975Z,240.20
2023-02-07T05:01:04.866Z,243.80
2023-02-07T05:03:32.988Z,237.90
2023-02-07T05:06:00.812Z,258.10
2023-02-07T05:08:28.731Z,238.60
2023-02-07T05:10:57.070Z,238.50
2023-02-07T05:13:25.767Z,228.40
2023-02-07T05:15:53.746Z,241.30
2023-02-07T05:18:21.939Z,252.70
2023-02-07T05:20:52.372Z,254.70
2023-02-07T05:23:20.439Z,257.10
2023-02-07T05:25:49.516Z,242.80
2023-02-07T05:28:17.672Z,234.40
2023-02-07T05:30:45.594Z,214.20
2023-02-07T05:33:13.669Z,219.80
2023-02-07T05:35:44.644Z,217.40
2023-02-07T05:38:15.541Z,212.00
2023-02-07T05:40:44.690Z,209.00
2023-02-07T05:43:13.346Z,201.50
2023-02-07T05:45:41.660Z,201.10
2023-02-07T05:48:09.761Z,197.90
2023-02-07T05:50:37.926Z,193.20
2023-02-07T05:53:08.583Z,191.90
2023-02-07T05:55:37.347Z,172.60
2023-02-07T05:58:05.741Z,169.40
2023-02-07T06:00:33.760Z,179.70
2023-02-07T06:03:01.767Z,177.60
2023-02-07T06:05:32.105Z,171.10
2023-02-07T06:08:00.240Z,169.80
2023-02-07T06:10:28.192Z,174.70
2023-02-07T06:12:56.314Z,184.70
2023-02-07T06:15:24.604Z,194.40
2023-02-07T06:17:52.589Z,230.40
2023-02-07T06:20:20.693Z,402.40
2023-02-07T06:22:48.601Z,180.30
2023-02-07T06:25:16.689Z,181.10
2023-02-07T06:27:44.866Z,174.90
2023-02-07T06:30:13.129Z,170.00
2023-02-07T06:32:41.121Z,168.40
2023-02-07T06:35:09.615Z,153.40
2023-02-07T06:37:37.518Z,153.40
2023-02-07T06:40:06.212Z,148.60
2023-02-07T06:42:34.136Z,142.70
2023-02-07T06:45:02.251Z,142.50
2023-02-07T06:47:30.098Z,147.20
2023-02-07T06:49:58.195Z,150.10
2023-02-07T06:52:26.380Z,151.60
2023-02-07T06:54:54.441Z,165.10
2023-02-07T06:57:22.393Z,178.40
2023-02-07T06:59:50.513Z,164.40
2023-02-07T07:02:18.395Z,162.70
2023-02-07T07:04:46.632Z,162.60
2023-02-07T07:07:14.526Z,165.70
2023-02-07T07:09:42.445Z,169.50
2023-02-07T07:12:10.268Z,171.00
2023-02-07T07:14:38.303Z,158.30
2023-02-07T07:17:06.328Z,144.10
2023-02-07T07:19:34.275Z,125.30
2023-02-07T07:22:02.206Z,123.90
2023-02-07T07:24:30.199Z,133.90
2023-02-07T07:26:58.416Z,113.90
2023-02-07T07:29:26.431Z,110.70
2023-02-07T07:31:54.300Z,115.40
2023-02-07T07:34:22.232Z,214.30
2023-02-07T07:36:50.280Z,498.20
2023-02-07T07:39:18.171Z,499.20
2023-02-07T07:41:46.127Z,199.50
2023-02-07T07:44:17.585Z,139.40
2023-02-07T07:46:45.770Z,134.10
2023-02-07T07:49:14.130Z,132.90
2023-02-07T07:51:42.160Z,125.10
2023-02-07T07:54:10.543Z,116.60
2023-02-07T07:56:38.412Z,127.30
2023-02-07T07:59:12.137Z,185.70
2023-02-07T08:01:48.209Z,115.80
2023-02-07T08:04:16.275Z,156.30
2023-02-07T08:06:44.276Z,102.70
2023-02-07T08:09:13.084Z,145.80
2023-02-07T08:11:40.998Z,179.00
2023-02-07T08:14:08.802Z,142.40
2023-02-07T08:16:36.981Z,123.40
2023-02-07T08:19:05.009Z,119.20
2023-02-07T08:21:32.918Z,132.30
2023-02-07T08:24:00.764Z,349.10
2023-02-07T08:26:28.758Z,388.20
2023-02-07T08:28:56.875Z,243.70
2023-02-07T08:31:25.100Z,194.30
2023-02-07T08:33:53.987Z,177.50
2023-02-07T08:36:22.137Z,209.70
2023-02-07T08:38:50.975Z,161.10
2023-02-07T08:41:19.288Z,238.60
2023-02-07T08:43:47.192Z,194.20
2023-02-07T08:46:15.204Z,184.90
2023-02-07T08:48:43.414Z,236.60
2023-02-07T08:51:11.530Z,279.00
2023-02-07T08:53:39.380Z,150.80
2023-02-07T08:56:09.086Z,142.10
2023-02-07T08:58:37.124Z,295.20
2023-02-07T09:01:07.824Z,131.90
2023-02-07T09:03:35.838Z,136.60
2023-02-07T09:06:04.073Z,226.30
2023-02-07T09:08:32.414Z,220.10
2023-02-07T09:11:00.726Z,152.40
2023-02-07T09:13:28.684Z,131.20
2023-02-07T09:15:59.634Z,133.90
2023-02-07T09:18:27.730Z,132.40
2023-02-07T09:20:55.728Z,172.70
2023-02-07T09:23:23.885Z,176.50
2023-02-07T09:25:53.247Z,133.40
2023-02-07T09:28:22.584Z,142.90
2023-02-07T09:30:50.867Z,138.70
2023-02-07T09:33:19.081Z,143.70
2023-02-07T09:35:47.352Z,219.70
2023-02-07T09:38:25.667Z,297.70
2023-02-07T09:40:54.998Z,244.50
2023-02-07T09:43:39.022Z,242.20
2023-02-07T09:46:25.231Z,172.10
2023-02-07T09:49:15.272Z,628.70
2023-02-07T09:51:45.771Z,807.40
2023-02-07T09:54:26.870Z,349.20
2023-02-07T09:56:59.213Z,168.50
2023-02-07T09:59:45.957Z,213.40
2023-02-07T10:02:22.077Z,210.50
2023-02-07T10:04:52.910Z,148.40
2023-02-07T10:07:20.920Z,361.50
2023-02-07T10:09:48.778Z,210.20
2023-02-07T10:12:44.088Z,181.00
2023-02-07T10:16:10.807Z,173.80
2023-02-07T10:18:47.425Z,155.90
2023-02-07T10:21:32.222Z,398.30
2023-02-07T10:24:12.231Z,94.80
2023-02-07T10:26:52.096Z,355.90
2023-02-07T10:29:44.744Z,287.50
2023-02-07T10:32:21.569Z,513.50
2023-02-07T10:34:53.838Z,442.90
2023-02-07T10:37:27.326Z,144.90
2023-02-07T10:40:07.095Z,119.60
2023-02-07T10:42:37.749Z,97.40
2023-02-07T10:45:06.742Z,108.20
2023-02-07T10:47:39.813Z,95.70
2023-02-07T10:50:18.678Z,244.30
2023-02-07T10:52:55.346Z,303.90
2023-02-07T10:55:38.219Z,281.20
2023-02-07T10:58:17.817Z,556.30
2023-02-07T11:00:52.226Z,221.50
2023-02-07T11:03:25.891Z,350.40
2023-02-07T11:06:04.320Z,385.20
2023-02-07T11:08:33.870Z,501.70
2023-02-07T11:11:28.798Z,1062.10
2023-02-07T11:14:04.092Z,1859.70
2023-02-07T11:16:32.819Z,628.90
2023-02-07T11:19:07.610Z,322.50
2023-02-07T11:21:42.317Z,209.80
2023-02-07T11:24:16.844Z,101.40
2023-02-07T11:26:55.880Z,218.30
2023-02-07T11:29:25.995Z,125.60
2023-02-07T11:31:56.829Z,1008.20
2023-02-07T11:35:09.768Z,207.60
2023-02-07T11:37:42.033Z,103.30
2023-02-07T11:40:19.299Z,240.60
2023-02-07T11:43:15.799Z,101.10
2023-02-07T11:45:48.119Z,559.40
2023-02-07T11:48:24.333Z,166.50
2023-02-07T11:50:55.657Z,235.70
2023-02-07T11:53:40.273Z,99.00
2023-02-07T11:56:22.850Z,70.80
2023-02-07T11:58:52.047Z,67.00
2023-02-07T12:01:32.935Z,392.20
2023-02-07T12:04:08.494Z,113.80
2023-02-07T12:06:42.051Z,101.50
2023-02-07T12:09:23.095Z,393.40
2023-02-07T12:11:55.811Z,158.50
2023-02-07T12:14:38.659Z,136.60
2023-02-07T12:17:16.281Z,141.40
2023-02-07T12:20:07.298Z,201.50
2023-02-07T12:22:44.561Z,639.30
2023-02-07T12:25:24.483Z,167.50
2023-02-07T12:27:56.009Z,123.50
2023-02-07T12:30:37.743Z,379.60
2023-02-07T12:33:15.200Z,221.10
2023-02-07T12:36:20.277Z,182.90
2023-02-07T12:39:08.052Z,142.90
2023-02-07T12:42:05.786Z,145.60
2023-02-07T12:44:33.632Z,159.90
2023-02-07T12:47:27.522Z,103.20
2023-02-07T12:50:22.121Z,77.20
2023-02-07T12:53:11.495Z,177.00
2023-02-07T12:56:07.738Z,87.60
2023-02-07T12:58:48.289Z,55.20
2023-02-07T13:01:38.146Z,53.10
2023-02-07T13:04:27.755Z,45.20
2023-02-07T13:07:19.238Z,42.40
2023-02-07T13:10:21.775Z,44.80
2023-02-07T13:13:10.064Z,44.00
2023-02-07T13:15:56.486Z,51.70
2023-02-07T13:18:24.468Z,80.10
2023-02-07T13:20:58.291Z,48.40
2023-02-07T13:23:30.648Z,43.50
2023-02-07T13:26:05.008Z,42.30
2023-02-07T13:28:42.468Z,40.60
2023-02-07T13:31:15.815Z,35.10
2023-02-07T13:33:44.963Z,36.60
2023-02-07T13:36:52.936Z,40.80
2023-02-07T13:39:39.487Z,39.60
2023-02-07T13:42:32.245Z,49.90
2023-02-07T13:45:23.913Z,42.50
2023-02-07T13:48:09.082Z,64.80
2023-02-07T13:50:45.736Z,63.60
2023-02-07T13:53:29.013Z,150.10
2023-02-07T13:56:09.653Z,282.70
2023-02-07T13:58:56.381Z,168.10
2023-02-07T14:01:31.540Z,186.30
2023-02-07T14:04:06.889Z,202.20
2023-02-07T14:06:40.315Z,107.00
2023-02-07T14:09:18.339Z,117.10
2023-02-07T14:11:49.464Z,77.00
2023-02-07T14:14:27.901Z,71.60
2023-02-07T14:17:07.440Z,462.20
2023-02-07T14:19:41.265Z,87.90
2023-02-07T14:22:23.258Z,541.40
2023-02-07T14:25:03.496Z,641.10
2023-02-07T14:27:31.411Z,216.10
2023-02-07T14:30:16.266Z,61.20
2023-02-07T14:32:46.051Z,32.50
2023-02-07T14:35:16.848Z,141.20
2023-02-07T14:37:54.330Z,104.60
2023-02-07T14:40:35.369Z,53.70
2023-02-07T14:43:17.856Z,51.70
2023-02-07T14:45:51.878Z,49.00
2023-02-07T14:48:42.785Z,81.60
2023-02-07T14:51:18.870Z,41.50
2023-02-07T14:56:53.924Z,201.60
2023-02-07T14:59:47.050Z,802.50
2023-02-07T15:02:50.853Z,100.90
2023-02-07T15:05:37.206Z,156.40
2023-02-07T15:08:09.059Z,342.80
2023-02-07T15:10:51.841Z,491.80
2023-02-07T15:13:25.724Z,580.50
2023-02-07T15:15:56.213Z,795.10
2023-02-07T15:18:26.985Z,411.50
2023-02-07T15:20:58.529Z,1127.20
2023-02-07T15:23:28.377Z,1303.00
2023-02-07T15:25:58.820Z,500.10
2023-02-07T15:28:29.169Z,343.60
2023-02-07T15:31:05.357Z,187.60
2023-02-07T15:33:39.883Z,184.60
2023-02-07T15:36:28.957Z,285.10
2023-02-07T15:38:58.154Z,881.90
2023-02-07T15:41:27.685Z,401.70
2023-02-07T15:44:07.479Z,325.50
2023-02-07T15:46:53.307Z,132.90
2023-02-07T15:49:40.876Z,114.20
2023-02-07T15:52:08.901Z,80.80
2023-02-07T15:54:44.507Z,93.40
2023-02-07T15:57:28.648Z,80.40
2023-02-07T16:00:01.973Z,410.60
2023-02-07T16:02:34.742Z,393.70
2023-02-07T16:05:22.344Z,484.60
2023-02-07T16:07:51.591Z,422.00
2023-02-07T16:10:33.177Z,722.50
2023-02-07T16:13:02.740Z,762.30
2023-02-07T16:15:36.683Z,581.80
2023-02-07T16:18:06.209Z,489.50
2023-02-07T16:20:36.169Z,818.50
2023-02-07T16:23:09.469Z,1508.50
2023-02-07T16:25:37.512Z,490.40
2023-02-07T16:28:11.220Z,790.20
2023-02-07T16:30:41.054Z,376.00
2023-02-07T16:33:13.128Z,299.70
2023-02-07T16:35:41.290Z,319.10
2023-02-07T16:38:09.082Z,543.10
2023-02-07T16:40:37.823Z,358.60
2023-02-07T16:43:08.084Z,228.00
2023-02-07T16:45:39.139Z,146.80
2023-02-07T16:48:15.154Z,127.10
2023-02-07T16:50:43.293Z,125.10
2023-02-07T16:53:11.153Z,146.00
2023-02-07T16:55:39.681Z,156.40
2023-02-07T16:58:08.096Z,125.00
2023-02-07T17:00:36.163Z,108.30
2023-02-07T17:03:04.944Z,506.80
2023-02-07T17:05:32.787Z,206.60
2023-02-07T17:08:00.689Z,115.70
2023-02-07T17:10:30.387Z,89.60
2023-02-07T17:12:58.341Z,75.50
2023-02-07T17:15:26.347Z,70.30
2023-02-07T17:17:58.184Z,101.90
2023-02-07T17:20:31.071Z,349.30
2023-02-07T17:23:00.092Z,465.30
2023-02-07T17:25:30.068Z,344.30
2023-02-07T17:27:59.635Z,245.00
2023-02-07T17:30:30.610Z,101.20
2023-02-07T17:32:58.623Z,80.80
2023-02-07T17:35:26.674Z,75.90
2023-02-07T17:37:54.627Z,108.10
2023-02-07T17:40:22.512Z,162.70
2023-02-07T17:42:50.989Z,214.70
2023-02-07T17:45:19.867Z,198.60
2023-02-07T17:47:48.019Z,178.00
2023-02-07T17:50:25.359Z,115.00
2023-02-07T17:52:53.374Z,102.80
2023-02-07T17:55:21.412Z,106.60
2023-02-07T17:57:49.979Z,107.10
2023-02-07T18:00:24.815Z,117.90
2023-02-07T18:02:53.220Z,291.40
2023-02-07T18:05:22.866Z,249.80
2023-02-07T18:07:52.737Z,121.70
2023-02-07T18:10:35.301Z,124.80
2023-02-07T18:13:03.302Z,133.60
2023-02-07T18:15:31.799Z,190.60
2023-02-07T18:18:00.046Z,129.10
2023-02-07T18:20:31.684Z,108.10
2023-02-07T18:23:00.813Z,97.40
2023-02-07T18:25:30.367Z,98.80
2023-02-07T18:27:59.398Z,95.80
2023-02-07T18:30:28.683Z,94.30
2023-02-07T18:32:56.958Z,105.50
2023-02-07T18:35:24.927Z,135.30
2023-02-07T18:37:53.012Z,107.10
2023-02-07T18:40:21.003Z,104.70
2023-02-07T18:42:49.313Z,111.40
2023-02-07T18:45:17.381Z,92.50
2023-02-07T18:47:45.591Z,92.00
2023-02-07T18:50:13.467Z,123.50
2023-02-07T18:52:41.497Z,118.60
2023-02-07T18:55:09.670Z,113.80
2023-02-07T18:57:37.462Z,129.90
2023-02-07T19:00:07.103Z,196.40
2023-02-07T19:02:35.664Z,277.70
2023-02-07T19:05:03.958Z,153.20
2023-02-07T19:07:32.653Z,177.70
2023-02-07T19:10:01.889Z,209.80
2023-02-07T19:12:30.008Z,188.90
2023-02-07T19:14:57.874Z,169.20
2023-02-07T19:17:25.870Z,153.80
2023-02-07T19:19:54.013Z,175.80
2023-02-07T19:22:34.671Z,236.60
2023-02-07T19:25:05.079Z,321.80
2023-02-07T19:27:33.737Z,281.80
2023-02-07T19:30:01.888Z,75.60
2023-02-07T19:32:30.348Z,364.30
2023-02-07T19:34:58.308Z,431.90
2023-02-07T19:37:26.230Z,397.80
2023-02-07T19:39:56.286Z,339.00
2023-02-07T19:42:24.985Z,229.50
2023-02-07T19:44:53.184Z,227.70
2023-02-07T19:47:21.191Z,232.20
2023-02-07T19:49:51.905Z,210.90
2023-02-07T19:52:20.765Z,206.60
2023-02-07T19:54:49.436Z,180.50
2023-02-07T19:57:17.344Z,182.20
2023-02-07T19:59:46.605Z,174.10
2023-02-07T20:02:15.035Z,173.60
2023-02-07T20:04:42.842Z,187.50
2023-02-07T20:07:10.993Z,203.50
2023-02-07T20:09:38.851Z,199.40
2023-02-07T20:12:07.588Z,208.40
2023-02-07T20:14:35.575Z,321.10
2023-02-07T20:17:03.624Z,326.60
2023-02-07T20:19:31.692Z,212.70
2023-02-07T20:22:00.317Z,224.90
2023-02-07T20:24:28.195Z,202.70
2023-02-07T20:26:56.361Z,195.90
2023-02-07T20:29:24.254Z,200.90
2023-02-07T20:31:52.877Z,193.50
2023-02-07T20:34:20.935Z,195.10
2023-02-07T20:36:49.130Z,188.60
2023-02-07T20:39:19.884Z,180.80
2023-02-07T20:41:50.103Z,169.40
2023-02-07T20:44:20.758Z,159.80
2023-02-07T20:46:50.944Z,148.40
2023-02-07T20:49:23.316Z,208.80
2023-02-07T20:51:53.461Z,260.50
2023-02-07T20:54:23.827Z,217.70
2023-02-07T20:56:53.496Z,229.10
2023-02-07T20:59:26.998Z,155.00
2023-02-07T21:01:55.595Z,144.10
2023-02-07T21:04:24.597Z,144.20
2023-02-07T21:06:52.919Z,140.30
2023-02-07T21:09:20.935Z,143.90
2023-02-07T21:11:51.615Z,143.70
2023-02-07T21:14:26.845Z,138.10
2023-02-07T21:16:58.688Z,137.30
2023-02-07T21:19:26.842Z,130.30
2023-02-07T21:21:55.273Z,127.00
2023-02-07T21:24:23.516Z,129.10
2023-02-07T21:26:53.167Z,127.10
2023-02-07T21:29:21.779Z,125.70
2023-02-07T21:31:50.567Z,100.80
2023-02-07T21:34:21.295Z,100.70
2023-02-07T21:36:50.621Z,105.50
2023-02-07T21:39:19.119Z,94.00
2023-02-07T21:41:48.137Z,82.50
2023-02-07T21:44:16.198Z,69.00
2023-02-07T21:46:46.315Z,61.10
2023-02-07T21:49:16.772Z,55.00
2023-02-07T21:51:48.195Z,50.10
2023-02-07T21:54:16.878Z,53.80
2023-02-07T21:56:45.096Z,56.20
2023-02-07T21:59:17.882Z,53.70
2023-02-07T22:01:47.401Z,53.70
2023-02-07T22:04:16.079Z,50.50
2023-02-07T22:06:47.265Z,50.70
2023-02-07T22:09:17.936Z,54.40
2023-02-07T22:11:45.994Z,54.80
2023-02-07T22:14:14.316Z,45.90
2023-02-07T22:16:43.223Z,48.00
2023-02-07T22:19:17.253Z,39.50
2023-02-07T22:21:47.155Z,46.70
2023-02-07T22:24:17.084Z,49.30
2023-02-07T22:26:45.475Z,51.30
2023-02-07T22:29:13.977Z,52.00
2023-02-07T22:31:42.250Z,49.60
2023-02-07T22:34:13.465Z,44.50
2023-02-07T22:36:44.465Z,41.90
2023-02-07T22:39:14.197Z,57.80
2023-02-07T22:41:42.788Z,66.80
2023-02-07T22:44:11.250Z,49.50
2023-02-07T22:46:39.226Z,302.70
2023-02-07T22:49:07.437Z,144.90
2023-02-07T22:51:37.594Z,46.20
2023-02-07T22:54:08.770Z,47.90
2023-02-07T22:56:38.235Z,39.00
2023-02-07T22:59:07.066Z,51.70
2023-02-07T23:01:39.030Z,61.70
2023-02-07T23:04:11.578Z,71.10
2023-02-07T23:06:40.033Z,58.80
2023-02-07T23:09:08.681Z,80.30
2023-02-07T23:11:37.198Z,72.40
2023-02-07T23:14:05.938Z,56.40
2023-02-07T23:16:34.963Z,40.00
2023-02-07T23:19:09.387Z,170.20
2023-02-07T23:21:37.461Z,66.40
2023-02-07T23:24:05.862Z,50.50
2023-02-07T23:26:34.241Z,49.80
2023-02-07T23:29:02.789Z,44.60
2023-02-07T23:31:30.942Z,41.80
2023-02-07T23:33:59.108Z,45.20
2023-02-07T23:36:27.440Z,50.70
2023-02-07T23:38:55.418Z,49.10
2023-02-07T23:41:23.386Z,57.30
2023-02-07T23:43:51.223Z,48.00
2023-02-07T23:46:19.620Z,49.10
2023-02-07T23:48:47.587Z,46.60
2023-02-07T23:51:16.064Z,44.80
2023-02-07T23:53:44.649Z,44.50
2023-02-07T23:56:18.532Z,40.70
2023-02-07T23:58:47.761Z,35.80
